createdAt,value
2022-11-14T00:01:15.362Z,9.50
2022-11-14T00:03:44.616Z,9.50
2022-11-14T00:06:13.331Z,9.50
2022-11-14T00:08:41.566Z,9.50
2022-11-14T00:11:09.626Z,9.50
2022-11-14T00:13:37.579Z,9.50
2022-11-14T00:16:05.841Z,9.50
2022-11-14T00:18:33.732Z,9.50
2022-11-14T00:21:03.237Z,9.60
2022-11-14T00:23:31.160Z,9.60
2022-11-14T00:25:59.149Z,9.60
2022-11-14T00:28:27.205Z,9.60
2022-11-14T00:30:55.544Z,9.60
2022-11-14T00:33:23.471Z,9.60
2022-11-14T00:35:53.611Z,9.60
2022-11-14T00:38:24.173Z,9.50
2022-11-14T00:40:52.311Z,9.50
2022-11-14T00:43:20.358Z,9.50
2022-11-14T00:45:49.609Z,9.50
2022-11-14T00:48:17.591Z,9.50
2022-11-14T00:50:46.138Z,9.50
2022-11-14T00:53:14.333Z,9.50
2022-11-14T00:55:51.141Z,9.50
2022-11-14T00:58:19.076Z,9.50
2022-11-14T01:00:47.183Z,9.50
2022-11-14T01:03:15.359Z,9.50
2022-11-14T01:05:44.221Z,9.40
2022-11-14T01:08:12.509Z,9.40
2022-11-14T01:10:43.244Z,9.40
2022-11-14T01:13:11.540Z,9.40
2022-11-14T01:15:43.686Z,9.40
2022-11-14T01:18:12.882Z,9.40
2022-11-14T01:20:41.471Z,9.40
2022-11-14T01:23:10.626Z,9.40
2022-11-14T01:25:39.791Z,9.40
2022-11-14T01:28:10.071Z,9.40
2022-11-14T01:30:38.544Z,9.40
2022-11-14T01:33:07.020Z,9.40
2022-11-14T01:35:36.701Z,9.40
2022-11-14T01:38:05.771Z,9.40
2022-11-14T01:40:36.419Z,9.40
2022-11-14T01:43:31.091Z,9.40
2022-11-14T01:46:02.129Z,9.40
2022-11-14T01:48:37.761Z,9.40
2022-11-14T01:51:16.671Z,9.40
2022-11-14T01:53:45.462Z,9.40
2022-11-14T01:56:17.639Z,9.40
2022-11-14T01:58:51.163Z,9.40
2022-11-14T02:01:19.263Z,9.40
2022-11-14T02:03:51.437Z,9.40
2022-11-14T02:06:22.168Z,9.40
2022-11-14T02:08:51.984Z,9.40
2022-11-14T02:11:20.022Z,9.50
2022-11-14T02:13:49.421Z,9.50
2022-11-14T02:16:17.381Z,9.40
2022-11-14T02:18:45.412Z,9.50
2022-11-14T02:21:14.719Z,9.40
2022-11-14T02:23:42.743Z,9.40
2022-11-14T02:26:11.955Z,9.40
2022-11-14T02:28:39.861Z,9.40
2022-11-14T02:31:07.999Z,9.40
2022-11-14T02:33:35.978Z,9.40
2022-11-14T02:36:06.368Z,9.50
2022-11-14T02:38:35.808Z,9.40
2022-11-14T02:41:04.360Z,9.50
2022-11-14T02:43:32.315Z,9.40
2022-11-14T02:46:05.250Z,9.50
2022-11-14T02:48:33.668Z,9.50
2022-11-14T02:51:01.685Z,9.50
2022-11-14T02:53:29.585Z,9.50
2022-11-14T02:56:01.371Z,9.50
2022-11-14T02:58:29.758Z,9.50
2022-11-14T03:01:19.778Z,9.50
2022-11-14T03:03:45.976Z,9.50
2022-11-14T03:06:13.865Z,9.50
2022-11-14T03:08:41.800Z,9.50
2022-11-14T03:11:12.328Z,9.50
2022-11-14T03:13:40.448Z,9.40
2022-11-14T03:16:09.376Z,9.40
2022-11-14T03:18:37.657Z,9.40
2022-11-14T03:21:09.446Z,9.40
2022-11-14T03:23:37.401Z,9.40
2022-11-14T03:26:07.662Z,9.50
2022-11-14T03:28:37.562Z,9.50
2022-11-14T03:31:06.426Z,9.40
2022-11-14T03:33:36.354Z,9.50
2022-11-14T03:36:05.549Z,9.50
2022-11-14T03:38:34.546Z,9.50
2022-11-14T03:41:02.921Z,9.50
2022-11-14T03:43:33.249Z,9.50
2022-11-14T03:46:04.224Z,9.50
2022-11-14T03:48:32.851Z,9.50
2022-11-14T03:51:01.152Z,9.50
2022-11-14T03:53:29.303Z,9.50
2022-11-14T03:55:57.294Z,9.50
2022-11-14T03:58:25.379Z,9.50
2022-11-14T04:00:55.785Z,9.50
2022-11-14T04:03:27.778Z,9.50
2022-11-14T04:05:55.918Z,9.50
2022-11-14T04:08:23.832Z,9.50
2022-11-14T04:10:51.818Z,9.50
2022-11-14T04:13:19.724Z,9.50
2022-11-14T04:15:47.631Z,9.50
2022-11-14T04:18:15.518Z,9.50
2022-11-14T04:20:44.935Z,9.50
2022-11-14T04:23:12.890Z,9.50
2022-11-14T04:25:40.939Z,9.50
2022-11-14T04:28:08.865Z,9.50
2022-11-14T04:30:36.812Z,9.50
2022-11-14T04:33:04.983Z,9.40
2022-11-14T04:35:32.984Z,9.50
2022-11-14T04:38:02.297Z,9.50
2022-11-14T04:40:30.311Z,9.50
2022-11-14T04:42:58.244Z,9.50
2022-11-14T04:45:26.230Z,9.50
2022-11-14T04:47:54.147Z,9.40
2022-11-14T04:50:22.444Z,9.40
2022-11-14T04:52:53.546Z,9.50
2022-11-14T04:55:22.846Z,9.50
2022-11-14T04:57:55.834Z,9.50
2022-11-14T05:00:26.432Z,9.50
2022-11-14T05:02:54.326Z,9.50
2022-11-14T05:05:22.366Z,9.50
2022-11-14T05:07:50.284Z,9.50
2022-11-14T05:10:18.328Z,9.60
2022-11-14T05:12:47.559Z,9.60
2022-11-14T05:15:15.641Z,9.60
2022-11-14T05:17:43.581Z,9.60
2022-11-14T05:20:12.531Z,9.60
2022-11-14T05:22:40.580Z,9.60
2022-11-14T05:25:09.511Z,9.60
2022-11-14T05:27:37.418Z,9.60
2022-11-14T05:30:07.908Z,9.50
2022-11-14T05:32:35.806Z,9.60
2022-11-14T05:35:04.381Z,9.60
2022-11-14T05:37:32.383Z,9.60
2022-11-14T05:40:00.392Z,9.60
2022-11-14T05:42:28.582Z,9.60
2022-11-14T05:44:56.590Z,9.50
2022-11-14T05:47:25.854Z,9.60
2022-11-14T05:49:53.820Z,9.60
2022-11-14T05:52:21.734Z,9.60
2022-11-14T05:54:49.749Z,9.60
2022-11-14T05:57:17.664Z,9.60
2022-11-14T05:59:45.539Z,9.60
2022-11-14T06:02:13.674Z,9.60
2022-11-14T06:04:42.938Z,9.60
2022-11-14T06:07:10.925Z,9.60
2022-11-14T06:09:39.137Z,9.60
2022-11-14T06:12:07.948Z,9.60
2022-11-14T06:14:36.006Z,9.60
2022-11-14T06:17:04.011Z,9.60
2022-11-14T06:19:32.132Z,9.70
2022-11-14T06:22:01.360Z,9.70
2022-11-14T06:24:29.263Z,9.60
2022-11-14T06:26:57.196Z,9.60
2022-11-14T06:29:25.131Z,9.60
2022-11-14T06:31:53.122Z,9.60
2022-11-14T06:34:21.033Z,9.60
2022-11-14T06:36:49.107Z,9.60
2022-11-14T06:39:18.411Z,9.70
2022-11-14T06:41:46.364Z,9.60
2022-11-14T06:44:15.096Z,9.60
2022-11-14T06:46:43.008Z,9.60
2022-11-14T06:49:10.999Z,9.60
2022-11-14T06:51:38.979Z,9.70
2022-11-14T06:54:07.156Z,9.70
2022-11-14T06:56:36.740Z,9.70
2022-11-14T06:59:04.761Z,9.70
2022-11-14T07:01:32.669Z,9.70
2022-11-14T07:04:00.713Z,9.70
2022-11-14T07:06:29.806Z,9.60
2022-11-14T07:08:59.973Z,9.70
2022-11-14T07:11:29.691Z,9.70
2022-11-14T07:14:02.906Z,9.70
2022-11-14T07:16:32.814Z,9.70
2022-11-14T07:19:06.109Z,9.70
2022-11-14T07:21:35.821Z,9.70
2022-11-14T07:24:04.055Z,9.70
2022-11-14T07:26:32.214Z,9.70
2022-11-14T07:29:02.846Z,9.70
2022-11-14T07:31:31.731Z,9.80
2022-11-14T07:33:59.670Z,9.80
2022-11-14T07:36:27.591Z,9.80
2022-11-14T07:38:55.799Z,9.80
2022-11-14T07:41:23.820Z,9.80
2022-11-14T07:43:51.739Z,9.80
2022-11-14T07:46:21.007Z,9.70
2022-11-14T07:48:48.898Z,9.70
2022-11-14T07:51:18.985Z,9.70
2022-11-14T07:53:47.095Z,9.70
2022-11-14T07:56:17.145Z,9.80
2022-11-14T07:58:45.156Z,9.80
2022-11-14T08:01:14.593Z,9.90
2022-11-14T08:03:46.315Z,9.90
2022-11-14T08:06:15.764Z,9.90
2022-11-14T08:08:43.838Z,9.90
2022-11-14T08:11:12.238Z,9.90
2022-11-14T08:13:42.204Z,9.90
2022-11-14T08:16:13.635Z,10.00
2022-11-14T08:18:43.235Z,10.00
2022-11-14T08:21:11.329Z,10.00
2022-11-14T08:23:39.350Z,10.00
2022-11-14T08:26:07.513Z,10.00
2022-11-14T08:28:35.516Z,10.10
2022-11-14T08:31:04.128Z,10.10
2022-11-14T08:33:32.717Z,10.10
2022-11-14T08:36:03.230Z,10.20
2022-11-14T08:38:32.991Z,10.20
2022-11-14T08:41:01.833Z,10.20
2022-11-14T08:43:32.234Z,10.20
2022-11-14T08:46:02.395Z,10.10
2022-11-14T08:48:31.318Z,10.20
2022-11-14T08:51:03.074Z,10.20
2022-11-14T08:53:32.513Z,10.30
2022-11-14T08:56:00.622Z,10.30
2022-11-14T08:58:31.080Z,10.30
2022-11-14T09:01:03.768Z,10.30
2022-11-14T09:03:32.452Z,10.30
2022-11-14T09:06:01.237Z,10.30
2022-11-14T09:08:30.502Z,10.30
2022-11-14T09:11:05.517Z,10.40
2022-11-14T09:13:34.895Z,10.40
2022-11-14T09:16:05.350Z,10.40
2022-11-14T09:18:33.456Z,10.50
2022-11-14T09:21:02.424Z,10.50
2022-11-14T09:23:31.019Z,10.50
2022-11-14T09:25:59.286Z,10.50
2022-11-14T09:28:28.552Z,10.60
2022-11-14T09:31:02.076Z,10.60
2022-11-14T09:33:30.308Z,10.60
2022-11-14T09:35:59.585Z,10.60
2022-11-14T09:38:27.906Z,10.70
2022-11-14T09:41:05.352Z,10.70
2022-11-14T09:43:48.664Z,10.70
2022-11-14T09:46:22.645Z,10.70
2022-11-14T09:48:53.742Z,10.70
2022-11-14T09:51:23.226Z,10.70
2022-11-14T09:53:56.833Z,10.80
2022-11-14T09:56:26.606Z,10.80
2022-11-14T09:58:57.181Z,10.90
2022-11-14T10:01:37.957Z,10.90
2022-11-14T10:04:20.529Z,10.90
2022-11-14T10:07:00.236Z,11.00
2022-11-14T10:09:51.315Z,11.00
2022-11-14T10:12:23.820Z,11.00
2022-11-14T10:15:11.738Z,11.10
2022-11-14T10:17:55.509Z,11.10
2022-11-14T10:20:33.031Z,11.20
2022-11-14T10:23:24.917Z,11.20
2022-11-14T10:25:58.111Z,11.20
2022-11-14T10:28:43.058Z,11.20
2022-11-14T10:31:23.759Z,11.30
2022-11-14T10:34:00.339Z,11.30
2022-11-14T10:36:38.564Z,11.30
2022-11-14T10:39:13.476Z,11.30
2022-11-14T10:41:57.061Z,11.40
2022-11-14T10:44:31.458Z,11.40
2022-11-14T10:47:04.802Z,11.50
2022-11-14T10:49:37.015Z,11.50
2022-11-14T10:52:07.969Z,11.50
2022-11-14T10:54:42.888Z,11.50
2022-11-14T10:57:17.138Z,11.50
2022-11-14T10:59:45.423Z,11.50
2022-11-14T11:02:15.442Z,11.50
2022-11-14T11:04:45.361Z,11.50
2022-11-14T11:07:42.778Z,11.50
2022-11-14T11:10:40.011Z,11.50
2022-11-14T11:13:10.794Z,11.60
2022-11-14T11:15:42.587Z,11.60
2022-11-14T11:18:28.052Z,11.60
2022-11-14T11:21:11.198Z,11.70
2022-11-14T11:23:50.287Z,11.70
2022-11-14T11:26:28.395Z,11.70
2022-11-14T11:29:05.440Z,11.80
2022-11-14T11:31:52.405Z,11.80
2022-11-14T11:34:25.908Z,11.80
2022-11-14T11:36:58.785Z,11.90
2022-11-14T11:39:30.808Z,11.90
2022-11-14T11:42:10.462Z,11.90
2022-11-14T11:44:44.576Z,11.90
2022-11-14T11:47:15.055Z,11.90
2022-11-14T11:49:53.260Z,11.80
2022-11-14T11:52:33.642Z,11.80
2022-11-14T11:55:06.557Z,11.80
2022-11-14T11:57:37.741Z,11.90
2022-11-14T12:00:15.333Z,11.90
2022-11-14T12:02:50.001Z,11.90
2022-11-14T12:05:27.061Z,11.90
2022-11-14T12:08:01.350Z,11.90
2022-11-14T12:10:33.479Z,11.90
2022-11-14T12:13:27.562Z,11.80
2022-11-14T12:16:12.829Z,11.90
2022-11-14T12:18:55.272Z,11.90
2022-11-14T12:21:46.298Z,12.00
2022-11-14T12:24:38.520Z,12.10
2022-11-14T12:27:20.341Z,12.20
2022-11-14T12:30:05.278Z,12.20
2022-11-14T12:32:37.769Z,12.20
2022-11-14T12:35:08.951Z,12.30
2022-11-14T12:37:44.684Z,12.40
2022-11-14T12:40:28.934Z,12.40
2022-11-14T12:42:59.020Z,12.40
2022-11-14T12:45:59.436Z,12.40
2022-11-14T12:48:35.819Z,12.50
2022-11-14T12:51:05.559Z,12.50
2022-11-14T12:53:46.484Z,12.50
2022-11-14T12:56:34.522Z,12.40
2022-11-14T12:59:28.342Z,12.40
2022-11-14T13:02:27.410Z,12.40
2022-11-14T13:05:13.015Z,12.50
2022-11-14T13:07:48.515Z,12.50
2022-11-14T13:10:27.953Z,12.60
2022-11-14T13:13:20.354Z,12.50
2022-11-14T13:16:08.852Z,12.50
2022-11-14T13:18:54.883Z,12.50
2022-11-14T13:21:45.657Z,12.50
2022-11-14T13:24:16.275Z,12.50
2022-11-14T13:26:50.524Z,12.50
2022-11-14T13:29:54.748Z,12.50
2022-11-14T13:32:54.007Z,12.50
2022-11-14T13:35:40.138Z,12.50
2022-11-14T13:38:50.639Z,12.50
2022-11-14T13:41:48.843Z,12.50
2022-11-14T13:44:48.070Z,12.40
2022-11-14T13:47:47.661Z,12.30
2022-11-14T13:50:18.616Z,12.30
2022-11-14T13:52:49.295Z,12.20
2022-11-14T13:55:22.486Z,12.20
2022-11-14T13:58:02.048Z,12.20
2022-11-14T14:00:50.536Z,12.20
2022-11-14T14:03:35.692Z,12.20
2022-11-14T14:06:22.064Z,12.20
2022-11-14T14:09:04.367Z,12.20
2022-11-14T14:11:45.745Z,12.20
2022-11-14T14:14:28.993Z,12.10
2022-11-14T14:17:02.289Z,12.10
2022-11-14T14:19:43.640Z,12.00
2022-11-14T14:22:21.307Z,12.00
2022-11-14T14:24:58.021Z,12.00
2022-11-14T14:27:35.140Z,11.90
2022-11-14T14:30:10.435Z,11.90
2022-11-14T14:32:39.916Z,11.90
2022-11-14T14:35:25.612Z,11.90
2022-11-14T14:37:54.932Z,11.90
2022-11-14T14:40:28.001Z,11.80
2022-11-14T14:42:57.387Z,11.80
2022-11-14T14:45:27.715Z,11.70
2022-11-14T14:48:03.599Z,11.70
2022-11-14T14:50:38.340Z,11.70
2022-11-14T14:53:07.511Z,11.60
2022-11-14T14:55:37.226Z,11.70
2022-11-14T14:58:21.975Z,11.70
2022-11-14T15:00:54.499Z,11.70
2022-11-14T15:03:25.554Z,11.70
2022-11-14T15:06:02.612Z,11.70
2022-11-14T15:08:33.312Z,11.70
2022-11-14T15:11:02.852Z,11.60
2022-11-14T15:13:32.167Z,11.60
2022-11-14T15:16:00.442Z,11.50
2022-11-14T15:18:32.866Z,11.50
2022-11-14T15:21:14.338Z,11.50
2022-11-14T15:23:42.707Z,11.50
2022-11-14T15:26:17.290Z,11.50
2022-11-14T15:28:45.743Z,11.40
2022-11-14T15:31:20.381Z,11.40
2022-11-14T15:34:02.667Z,11.40
2022-11-14T15:36:30.575Z,11.30
2022-11-14T15:39:04.648Z,11.30
2022-11-14T15:41:33.629Z,11.30
2022-11-14T15:44:05.555Z,11.30
2022-11-14T15:46:47.031Z,11.20
2022-11-14T15:49:22.687Z,11.30
2022-11-14T15:51:54.274Z,11.20
2022-11-14T15:54:30.219Z,11.20
2022-11-14T15:57:00.073Z,11.20
2022-11-14T15:59:30.247Z,11.20
2022-11-14T16:02:00.909Z,11.00
2022-11-14T16:04:34.485Z,11.00
2022-11-14T16:07:02.499Z,11.00
2022-11-14T16:09:30.639Z,11.00
2022-11-14T16:11:58.839Z,11.00
2022-11-14T16:14:26.745Z,10.90
2022-11-14T16:16:54.638Z,10.90
2022-11-14T16:19:23.033Z,10.90
2022-11-14T16:21:52.393Z,10.80
2022-11-14T16:24:21.858Z,10.80
2022-11-14T16:26:50.403Z,10.80
2022-11-14T16:29:18.337Z,10.70
2022-11-14T16:31:47.301Z,10.70
2022-11-14T16:34:19.185Z,10.70
2022-11-14T16:36:48.765Z,10.70
2022-11-14T16:39:18.208Z,10.70
2022-11-14T16:41:46.092Z,10.60
2022-11-14T16:44:16.968Z,10.60
2022-11-14T16:46:45.486Z,10.50
2022-11-14T16:49:15.321Z,10.50
2022-11-14T16:51:49.633Z,10.50
2022-11-14T16:54:20.637Z,10.50
2022-11-14T16:56:48.903Z,10.40
2022-11-14T16:59:17.283Z,10.40
2022-11-14T17:01:46.064Z,10.40
2022-11-14T17:04:14.217Z,10.40
2022-11-14T17:06:42.753Z,10.40
2022-11-14T17:09:14.575Z,10.30
2022-11-14T17:11:45.190Z,10.30
2022-11-14T17:14:13.303Z,10.30
2022-11-14T17:16:41.206Z,10.30
2022-11-14T17:19:09.215Z,10.20
2022-11-14T17:21:37.159Z,10.20
2022-11-14T17:24:05.503Z,10.10
2022-11-14T17:26:33.467Z,10.10
2022-11-14T17:29:03.435Z,10.10
2022-11-14T17:31:37.455Z,10.00
2022-11-14T17:34:06.281Z,10.00
2022-11-14T17:36:37.296Z,10.00
2022-11-14T17:39:05.488Z,10.00
2022-11-14T17:41:35.603Z,9.90
2022-11-14T17:44:05.350Z,9.90
2022-11-14T17:46:33.622Z,9.90
2022-11-14T17:49:01.683Z,9.90
2022-11-14T17:51:29.793Z,9.90
2022-11-14T17:53:57.701Z,9.80
2022-11-14T17:56:27.290Z,9.80
2022-11-14T17:58:55.252Z,9.80
2022-11-14T18:01:26.078Z,9.70
2022-11-14T18:03:54.237Z,9.70
2022-11-14T18:06:24.277Z,9.70
2022-11-14T18:08:52.274Z,9.70
2022-11-14T18:11:20.586Z,9.80
2022-11-14T18:13:48.678Z,9.80
2022-11-14T18:16:18.867Z,9.70
2022-11-14T18:18:48.274Z,9.70
2022-11-14T18:21:18.281Z,9.70
2022-11-14T18:23:51.862Z,9.60
2022-11-14T18:26:27.504Z,9.60
2022-11-14T18:28:56.567Z,9.60
2022-11-14T18:31:25.347Z,9.50
2022-11-14T18:33:55.168Z,9.40
2022-11-14T18:36:23.590Z,9.50
2022-11-14T18:38:51.630Z,9.60
2022-11-14T18:41:22.223Z,9.60
2022-11-14T18:43:50.668Z,9.50
2022-11-14T18:46:20.628Z,9.50
2022-11-14T18:48:50.585Z,9.40
2022-11-14T18:51:21.547Z,9.40
2022-11-14T18:53:51.017Z,9.40
2022-11-14T18:56:20.149Z,9.40
2022-11-14T18:58:48.485Z,9.30
2022-11-14T19:01:22.032Z,9.30
2022-11-14T19:03:50.134Z,9.30
2022-11-14T19:06:19.527Z,9.20
2022-11-14T19:08:47.882Z,9.30
2022-11-14T19:11:35.004Z,9.20
2022-11-14T19:14:04.911Z,9.20
2022-11-14T19:16:33.033Z,9.20
2022-11-14T19:19:01.192Z,9.20
2022-11-14T19:21:30.761Z,9.10
2022-11-14T19:23:59.694Z,9.10
2022-11-14T19:26:28.419Z,9.10
2022-11-14T19:28:56.601Z,9.20
2022-11-14T19:31:25.228Z,9.20
2022-11-14T19:33:53.179Z,9.20
2022-11-14T19:36:45.307Z,9.20
2022-11-14T19:39:11.881Z,9.20
2022-11-14T19:41:39.866Z,9.20
2022-11-14T19:44:07.933Z,9.10
2022-11-14T19:46:36.855Z,9.10
2022-11-14T19:49:05.691Z,9.10
2022-11-14T19:51:33.868Z,9.00
2022-11-14T19:54:03.260Z,9.00
2022-11-14T19:56:32.574Z,8.90
2022-11-14T19:59:02.780Z,8.90
2022-11-14T20:01:30.866Z,8.90
2022-11-14T20:04:00.445Z,8.90
2022-11-14T20:06:30.736Z,8.80
2022-11-14T20:09:01.644Z,8.90
2022-11-14T20:11:30.697Z,9.00
2022-11-14T20:14:01.246Z,8.90
2022-11-14T20:16:31.019Z,8.90
2022-11-14T20:19:00.685Z,8.90
2022-11-14T20:21:30.933Z,8.90
2022-11-14T20:23:59.276Z,9.00
2022-11-14T20:26:27.730Z,9.00
2022-11-14T20:28:55.747Z,9.10
2022-11-14T20:31:27.329Z,9.00
2022-11-14T20:33:56.324Z,9.00
2022-11-14T20:36:31.948Z,8.90
2022-11-14T20:39:03.393Z,8.90
2022-11-14T20:41:31.515Z,8.90
2022-11-14T20:43:59.632Z,8.90
2022-11-14T20:46:29.134Z,8.90
2022-11-14T20:48:57.389Z,9.00
2022-11-14T20:51:28.062Z,9.00
2022-11-14T20:53:57.067Z,8.90
2022-11-14T20:56:25.098Z,8.90
2022-11-14T20:58:53.159Z,8.90
2022-11-14T21:01:21.736Z,9.00
2022-11-14T21:03:52.112Z,9.00
2022-11-14T21:06:20.025Z,9.00
2022-11-14T21:08:48.041Z,9.00
2022-11-14T21:11:22.424Z,9.00
2022-11-14T21:13:59.296Z,9.00
2022-11-14T21:16:31.664Z,9.00
2022-11-14T21:19:02.005Z,8.90
2022-11-14T21:21:31.367Z,9.00
2022-11-14T21:24:01.665Z,9.00
2022-11-14T21:26:31.664Z,9.00
2022-11-14T21:29:02.641Z,9.00
2022-11-14T21:31:33.371Z,9.00
2022-11-14T21:34:04.965Z,9.10
2022-11-14T21:36:48.673Z,9.00
2022-11-14T21:39:17.684Z,8.90
2022-11-14T21:41:48.337Z,8.70
2022-11-14T21:44:18.091Z,8.70
2022-11-14T21:46:48.706Z,8.80
2022-11-14T21:49:18.339Z,8.80
2022-11-14T21:51:47.145Z,8.90
2022-11-14T21:54:15.280Z,9.00
2022-11-14T21:56:43.170Z,9.00
2022-11-14T21:59:15.517Z,9.00
2022-11-14T22:02:03.310Z,9.10
2022-11-14T22:04:33.401Z,9.10
2022-11-14T22:07:03.423Z,9.10
2022-11-14T22:09:32.096Z,9.20
2022-11-14T22:12:00.533Z,9.20
2022-11-14T22:14:29.339Z,9.20
2022-11-14T22:16:57.967Z,9.10
2022-11-14T22:19:26.143Z,9.20
2022-11-14T22:21:55.530Z,9.10
2022-11-14T22:24:23.929Z,9.10
2022-11-14T22:26:51.892Z,9.10
2022-11-14T22:29:20.007Z,9.10
2022-11-14T22:31:47.989Z,9.10
2022-11-14T22:34:16.015Z,9.10
2022-11-14T22:36:43.982Z,9.10
2022-11-14T22:39:13.490Z,9.10
2022-11-14T22:41:41.759Z,9.00
2022-11-14T22:44:09.664Z,9.00
2022-11-14T22:46:38.061Z,9.00
2022-11-14T22:49:06.096Z,9.00
2022-11-14T22:51:34.124Z,9.00
2022-11-14T22:54:02.055Z,9.00
2022-11-14T22:56:31.392Z,9.00
2022-11-14T22:59:00.909Z,9.00
2022-11-14T23:01:31.272Z,9.00
2022-11-14T23:04:01.141Z,9.00
2022-11-14T23:06:30.139Z,9.00
2022-11-14T23:08:58.225Z,9.00
2022-11-14T23:11:28.023Z,8.90
2022-11-14T23:13:58.754Z,8.90
2022-11-14T23:16:28.698Z,8.90
2022-11-14T23:18:57.903Z,8.80
2022-11-14T23:21:27.877Z,8.90
2022-11-14T23:23:56.824Z,8.90
2022-11-14T23:26:26.099Z,8.90
2022-11-14T23:28:54.889Z,8.90
2022-11-14T23:31:25.360Z,8.90
2022-11-14T23:33:55.083Z,8.90
2022-11-14T23:36:23.425Z,8.90
2022-11-14T23:38:53.057Z,8.90
2022-11-14T23:41:23.175Z,8.90
2022-11-14T23:43:51.246Z,8.90
2022-11-14T23:46:19.340Z,8.90
2022-11-14T23:48:48.801Z,8.90
2022-11-14T23:51:17.581Z,8.90
2022-11-14T23:53:46.848Z,8.90
2022-11-14T23:56:15.640Z,8.90
2022-11-14T23:58:43.950Z,8.90
